Terminal Aerodrome Forecast
Issued by NWS Sioux Falls, SD

Home | Current Version | Previous Version | Graphics & Text | Print | Product List | Glossary Off
Versions: 1 2 3 4 5 6 7 8 9 10 11 12

000
FTUS43 KFSD 022320
TAFFSD
TAF
KFSD 022320Z 0300/0324 22005KT P6SM SCT070 SCT150
     FM030200 VRB03KT P6SM SKC
     FM031500 28009KT P6SM SKC
     FM031800 29013G19KT P6SM SKC=

USA.gov is the U.S. government's official web portal to all federal, state and local government web resources and services.